createdAt,value
2019-03-15T00:00:47.643Z,990.75
2019-03-15T00:01:47.632Z,990.77
2019-03-15T00:02:47.620Z,990.74
2019-03-15T00:03:47.611Z,990.78
2019-03-15T00:04:47.607Z,990.79
2019-03-15T00:05:47.597Z,990.89
2019-03-15T00:06:47.584Z,990.87
2019-03-15T00:07:47.565Z,990.82
2019-03-15T00:08:47.552Z,990.92
2019-03-15T00:09:48.492Z,990.99
2019-03-15T00:10:47.588Z,990.91
2019-03-15T00:11:47.519Z,990.98
2019-03-15T00:12:47.507Z,990.93
2019-03-15T00:13:47.496Z,990.90
2019-03-15T00:14:47.485Z,990.94
2019-03-15T00:15:47.476Z,991.05
2019-03-15T00:16:47.483Z,990.97
2019-03-15T00:17:47.452Z,990.82
2019-03-15T00:18:47.442Z,991.04
2019-03-15T00:19:47.443Z,991.16
2019-03-15T00:20:47.417Z,991.14
2019-03-15T00:21:47.411Z,991.20
2019-03-15T00:22:47.402Z,991.15
2019-03-15T00:23:47.384Z,991.32
2019-03-15T00:24:47.387Z,991.25
2019-03-15T00:25:47.368Z,991.22
2019-03-15T00:26:47.351Z,991.25
2019-03-15T00:27:47.339Z,991.23
2019-03-15T00:28:47.335Z,991.39
2019-03-15T00:29:47.331Z,991.21
2019-03-15T00:30:47.316Z,991.33
2019-03-15T00:31:47.307Z,991.33
2019-03-15T00:32:47.283Z,991.42
2019-03-15T00:33:47.271Z,991.31
2019-03-15T00:34:47.266Z,991.37
2019-03-15T00:35:47.248Z,991.38
2019-03-15T00:36:47.258Z,991.36
2019-03-15T00:37:47.238Z,991.34
2019-03-15T00:38:47.216Z,991.45
2019-03-15T00:39:47.539Z,991.34
2019-03-15T00:40:47.201Z,991.34
2019-03-15T00:41:47.181Z,991.36
2019-03-15T00:42:47.181Z,991.32
2019-03-15T00:43:49.465Z,991.39
2019-03-15T00:44:47.159Z,991.22
2019-03-15T00:45:47.144Z,991.22
2019-03-15T00:46:47.133Z,991.24
2019-03-15T00:47:47.139Z,991.20
2019-03-15T00:48:47.102Z,991.37
2019-03-15T00:49:47.265Z,991.32
2019-03-15T00:50:47.086Z,991.33
2019-03-15T00:51:47.068Z,991.35
2019-03-15T00:52:47.087Z,991.39
2019-03-15T00:53:47.059Z,991.37
2019-03-15T00:54:47.055Z,991.39
2019-03-15T00:55:47.033Z,991.35
2019-03-15T00:56:47.011Z,991.33
2019-03-15T00:57:47.035Z,991.41
2019-03-15T00:58:46.998Z,991.46
2019-03-15T00:59:46.980Z,991.54
2019-03-15T01:00:46.970Z,991.48
2019-03-15T01:01:46.956Z,991.47
2019-03-15T01:02:46.946Z,991.43
2019-03-15T01:03:46.946Z,991.43
2019-03-15T01:04:46.941Z,991.41
2019-03-15T01:05:46.920Z,991.53
2019-03-15T01:06:46.900Z,991.66
2019-03-15T01:07:46.895Z,991.52
2019-03-15T01:08:46.876Z,991.61
2019-03-15T01:09:46.888Z,991.54
2019-03-15T01:10:46.853Z,991.54
2019-03-15T01:11:46.855Z,991.59
2019-03-15T01:12:46.831Z,991.64
2019-03-15T01:13:46.819Z,991.64
2019-03-15T01:14:46.810Z,991.65
2019-03-15T01:15:46.812Z,991.69
2019-03-15T01:16:46.785Z,991.77
2019-03-15T01:17:46.783Z,991.69
2019-03-15T01:18:46.765Z,991.67
2019-03-15T01:19:46.775Z,991.66
2019-03-15T01:20:46.741Z,991.75
2019-03-15T01:21:46.731Z,991.71
2019-03-15T01:22:46.719Z,991.71
2019-03-15T01:23:46.737Z,991.73
2019-03-15T01:24:46.696Z,991.71
2019-03-15T01:25:46.698Z,991.71
2019-03-15T01:26:46.675Z,991.70
2019-03-15T01:27:46.665Z,991.68
2019-03-15T01:28:46.650Z,991.74
2019-03-15T01:29:46.655Z,991.77
2019-03-15T01:30:46.640Z,991.70
2019-03-15T01:31:46.619Z,991.72
2019-03-15T01:32:46.625Z,991.64
2019-03-15T01:33:46.595Z,991.90
2019-03-15T01:34:46.592Z,991.68
2019-03-15T01:35:46.591Z,991.83
2019-03-15T01:36:46.560Z,991.69
2019-03-15T01:37:46.561Z,991.70
2019-03-15T01:38:46.538Z,991.72
2019-03-15T01:39:46.527Z,991.94
2019-03-15T01:40:48.773Z,991.74
2019-03-15T01:41:46.509Z,991.70
2019-03-15T01:42:46.522Z,991.59
2019-03-15T01:43:46.481Z,991.53
2019-03-15T01:44:46.471Z,991.76
2019-03-15T01:45:46.478Z,991.80
2019-03-15T01:46:46.448Z,991.74
2019-03-15T01:47:46.441Z,991.77
2019-03-15T01:48:46.435Z,991.71
2019-03-15T01:49:46.414Z,991.72
2019-03-15T01:50:46.410Z,991.84
2019-03-15T01:51:46.392Z,991.71
2019-03-15T01:52:46.387Z,991.68
2019-03-15T01:53:46.422Z,991.67
2019-03-15T01:54:46.356Z,991.68
2019-03-15T01:55:46.346Z,991.69
2019-03-15T01:56:46.335Z,991.69
2019-03-15T01:57:46.326Z,991.71
2019-03-15T01:58:46.314Z,991.91
2019-03-15T01:59:46.321Z,991.88
2019-03-15T02:00:46.289Z,991.86
2019-03-15T02:01:46.279Z,991.83
2019-03-15T02:02:46.268Z,991.90
2019-03-15T02:03:46.256Z,992.01
2019-03-15T02:04:46.268Z,991.96
2019-03-15T02:05:46.251Z,991.95
2019-03-15T02:06:46.221Z,992.00
2019-03-15T02:07:46.210Z,991.96
2019-03-15T02:08:46.200Z,992.06
2019-03-15T02:09:46.186Z,992.08
2019-03-15T02:10:46.188Z,992.06
2019-03-15T02:11:46.172Z,992.07
2019-03-15T02:12:46.156Z,992.10
2019-03-15T02:13:46.142Z,992.03
2019-03-15T02:14:46.135Z,992.05
2019-03-15T02:15:46.134Z,992.16
2019-03-15T02:16:46.113Z,992.14
2019-03-15T02:17:46.116Z,992.08
2019-03-15T02:18:46.087Z,992.13
2019-03-15T02:19:46.076Z,992.10
2019-03-15T02:20:46.064Z,992.07
2019-03-15T02:21:46.053Z,992.21
2019-03-15T02:22:46.051Z,992.15
2019-03-15T02:23:46.038Z,992.24
2019-03-15T02:24:46.019Z,992.18
2019-03-15T02:25:46.023Z,992.17
2019-03-15T02:26:45.994Z,992.20
2019-03-15T02:27:45.997Z,992.13
2019-03-15T02:28:46.007Z,992.08
2019-03-15T02:29:45.979Z,992.26
2019-03-15T02:30:45.951Z,992.15
2019-03-15T02:31:47.097Z,992.13
2019-03-15T02:32:45.939Z,992.08
2019-03-15T02:33:45.920Z,992.12
2019-03-15T02:34:45.918Z,992.08
2019-03-15T02:35:47.107Z,992.10
2019-03-15T02:36:45.897Z,992.09
2019-03-15T02:37:45.876Z,992.18
2019-03-15T02:38:45.862Z,992.29
2019-03-15T02:39:46.287Z,992.25
2019-03-15T02:40:45.841Z,992.36
2019-03-15T02:41:45.834Z,992.36
2019-03-15T02:42:45.829Z,992.32
2019-03-15T02:43:46.136Z,992.28
2019-03-15T02:44:45.796Z,992.33
2019-03-15T02:45:45.807Z,992.31
2019-03-15T02:46:45.773Z,992.37
2019-03-15T02:47:46.572Z,992.33
2019-03-15T02:48:45.764Z,992.19
2019-03-15T02:49:45.740Z,992.46
2019-03-15T02:50:45.726Z,992.26
2019-03-15T02:51:45.715Z,992.28
2019-03-15T02:52:45.705Z,992.19
2019-03-15T02:53:45.714Z,992.23
2019-03-15T02:54:45.683Z,992.31
2019-03-15T02:55:45.674Z,992.34
2019-03-15T02:56:45.671Z,992.33
2019-03-15T02:57:45.655Z,992.32
2019-03-15T02:58:45.654Z,992.40
2019-03-15T02:59:47.131Z,992.41
2019-03-15T03:00:45.646Z,992.34
2019-03-15T03:01:45.606Z,992.42
2019-03-15T03:02:45.614Z,992.47
2019-03-15T03:03:47.143Z,992.37
2019-03-15T03:04:45.569Z,992.40
2019-03-15T03:05:45.573Z,992.43
2019-03-15T03:06:45.552Z,992.39
2019-03-15T03:07:45.535Z,992.45
2019-03-15T03:08:45.552Z,992.50
2019-03-15T03:09:45.513Z,992.46
2019-03-15T03:10:45.506Z,992.47
2019-03-15T03:11:45.505Z,992.40
2019-03-15T03:12:45.484Z,992.47
2019-03-15T03:13:45.475Z,992.36
2019-03-15T03:14:45.470Z,992.33
2019-03-15T03:15:45.446Z,992.39
2019-03-15T03:16:46.142Z,992.42
2019-03-15T03:17:45.436Z,992.33
2019-03-15T03:18:45.424Z,992.42
2019-03-15T03:19:45.401Z,992.38
2019-03-15T03:20:45.395Z,992.39
2019-03-15T03:21:45.377Z,992.35
2019-03-15T03:22:45.371Z,992.37
2019-03-15T03:23:45.381Z,992.43
2019-03-15T03:24:45.346Z,992.47
2019-03-15T03:25:45.346Z,992.48
2019-03-15T03:26:45.333Z,992.48
2019-03-15T03:27:45.312Z,992.52
2019-03-15T03:28:45.306Z,992.61
2019-03-15T03:29:45.298Z,992.47
2019-03-15T03:30:46.609Z,992.52
2019-03-15T03:31:46.001Z,992.56
2019-03-15T03:32:45.268Z,992.62
2019-03-15T03:33:45.264Z,992.61
2019-03-15T03:34:45.235Z,992.57
2019-03-15T03:35:45.244Z,992.57
2019-03-15T03:36:45.223Z,992.52
2019-03-15T03:37:45.533Z,992.48
2019-03-15T03:38:45.186Z,992.51
2019-03-15T03:39:45.183Z,992.65
2019-03-15T03:40:45.164Z,992.57
2019-03-15T03:41:45.173Z,992.59
2019-03-15T03:42:45.321Z,992.55
2019-03-15T03:43:45.157Z,992.62
2019-03-15T03:44:45.121Z,992.70
2019-03-15T03:45:45.107Z,992.62
2019-03-15T03:46:45.098Z,992.70
2019-03-15T03:47:45.085Z,992.68
2019-03-15T03:48:45.107Z,992.69
2019-03-15T03:49:45.071Z,992.71
2019-03-15T03:50:45.053Z,992.63
2019-03-15T03:51:45.040Z,992.61
2019-03-15T03:52:45.030Z,992.67
2019-03-15T03:53:45.018Z,992.70
2019-03-15T03:54:45.027Z,992.79
2019-03-15T03:55:44.995Z,992.82
2019-03-15T03:56:44.997Z,992.71
2019-03-15T03:57:44.972Z,992.75
2019-03-15T03:58:44.963Z,992.70
2019-03-15T03:59:44.997Z,992.71
2019-03-15T04:00:44.945Z,992.76
2019-03-15T04:01:44.930Z,992.78
2019-03-15T04:02:44.925Z,992.75
2019-03-15T04:03:44.906Z,992.79
2019-03-15T04:04:44.895Z,992.74
2019-03-15T04:05:44.900Z,992.71
2019-03-15T04:06:44.878Z,992.79
2019-03-15T04:07:44.876Z,992.77
2019-03-15T04:08:44.850Z,992.78
2019-03-15T04:09:44.839Z,992.88
2019-03-15T04:10:44.840Z,992.86
2019-03-15T04:11:54.843Z,992.90
2019-03-15T04:12:45.811Z,992.85
2019-03-15T04:13:44.801Z,992.82
2019-03-15T04:14:44.780Z,992.83
2019-03-15T04:15:44.784Z,992.78
2019-03-15T04:16:44.758Z,992.87
2019-03-15T04:17:44.748Z,992.88
2019-03-15T04:18:44.741Z,992.78
2019-03-15T04:19:44.731Z,992.87
2019-03-15T04:20:44.741Z,992.84
2019-03-15T04:21:44.710Z,992.83
2019-03-15T04:22:44.695Z,992.88
2019-03-15T04:23:44.681Z,992.89
2019-03-15T04:24:44.670Z,992.91
2019-03-15T04:25:44.664Z,992.88
2019-03-15T04:26:44.659Z,992.98
2019-03-15T04:27:44.634Z,992.96
2019-03-15T04:28:44.648Z,992.93
2019-03-15T04:29:44.614Z,992.99
2019-03-15T04:30:44.602Z,993.02
2019-03-15T04:31:44.597Z,993.04
2019-03-15T04:32:44.582Z,992.99
2019-03-15T04:33:44.570Z,992.95
2019-03-15T04:34:44.578Z,992.96
2019-03-15T04:35:44.546Z,992.96
2019-03-15T04:36:44.544Z,993.08
2019-03-15T04:37:44.531Z,993.00
2019-03-15T04:38:44.510Z,993.06
2019-03-15T04:39:44.524Z,993.04
2019-03-15T04:40:44.493Z,993.00
2019-03-15T04:41:44.478Z,993.01
2019-03-15T04:42:44.467Z,993.06
2019-03-15T04:43:44.462Z,993.03
2019-03-15T04:44:44.493Z,993.02
2019-03-15T04:45:44.438Z,993.01
2019-03-15T04:46:44.428Z,993.01
2019-03-15T04:47:44.412Z,992.99
2019-03-15T04:48:44.401Z,993.03
2019-03-15T04:49:44.406Z,993.11
2019-03-15T04:50:44.393Z,993.05
2019-03-15T04:51:44.365Z,993.06
2019-03-15T04:52:44.357Z,992.93
2019-03-15T04:53:44.361Z,993.11
2019-03-15T04:54:44.333Z,992.98
2019-03-15T04:55:44.330Z,993.09
2019-03-15T04:56:44.317Z,993.03
2019-03-15T04:57:44.299Z,993.00
2019-03-15T04:58:44.325Z,993.00
2019-03-15T04:59:44.280Z,993.02
2019-03-15T05:00:44.266Z,993.04
2019-03-15T05:01:44.255Z,993.04
2019-03-15T05:02:44.252Z,993.00
2019-03-15T05:03:44.232Z,993.00
2019-03-15T05:04:44.235Z,993.04
2019-03-15T05:05:44.211Z,993.05
2019-03-15T05:06:44.199Z,993.00
2019-03-15T05:07:44.187Z,993.04
2019-03-15T05:08:44.183Z,992.99
2019-03-15T05:09:44.179Z,993.17
2019-03-15T05:10:44.156Z,993.05
2019-03-15T05:11:44.141Z,993.10
2019-03-15T05:12:44.133Z,993.09
2019-03-15T05:13:44.142Z,993.09
2019-03-15T05:14:44.114Z,993.10
2019-03-15T05:15:44.100Z,993.24
2019-03-15T05:16:44.087Z,993.10
2019-03-15T05:17:44.074Z,993.17
2019-03-15T05:18:44.071Z,993.25
2019-03-15T05:19:44.065Z,993.23
2019-03-15T05:20:44.049Z,993.28
2019-03-15T05:21:44.031Z,993.22
2019-03-15T05:22:44.020Z,993.22
2019-03-15T05:23:44.009Z,993.26
2019-03-15T05:24:44.009Z,993.24
2019-03-15T05:25:44.019Z,993.24
2019-03-15T05:26:43.985Z,993.30
2019-03-15T05:27:43.969Z,993.29
2019-03-15T05:28:43.953Z,993.29
2019-03-15T05:29:43.942Z,993.25
2019-03-15T05:30:43.931Z,993.18
2019-03-15T05:31:43.957Z,993.19
2019-03-15T05:32:43.921Z,993.22
2019-03-15T05:33:43.897Z,993.22
2019-03-15T05:34:43.935Z,993.23
2019-03-15T05:35:43.874Z,993.22
2019-03-15T05:36:43.862Z,993.22
2019-03-15T05:37:43.873Z,993.27
2019-03-15T05:38:43.847Z,993.28
2019-03-15T05:39:43.832Z,993.24
2019-03-15T05:40:43.819Z,993.35
2019-03-15T05:41:43.807Z,993.35
2019-03-15T05:42:43.796Z,993.33
2019-03-15T05:43:43.804Z,993.27
2019-03-15T05:44:43.783Z,993.27
2019-03-15T05:45:43.769Z,993.26
2019-03-15T05:46:43.753Z,993.30
2019-03-15T05:47:43.739Z,993.28
2019-03-15T05:48:43.744Z,993.28
2019-03-15T05:49:43.718Z,993.34
2019-03-15T05:50:43.706Z,993.23
2019-03-15T05:51:43.700Z,993.27
2019-03-15T05:52:43.686Z,993.26
2019-03-15T05:53:43.687Z,993.25
2019-03-15T05:54:43.662Z,993.21
2019-03-15T05:55:43.653Z,993.22
2019-03-15T05:56:43.639Z,993.22
2019-03-15T05:57:43.635Z,993.28
2019-03-15T05:58:45.384Z,993.30
2019-03-15T05:59:43.803Z,993.43
2019-03-15T06:00:43.607Z,993.38
2019-03-15T06:01:43.592Z,993.36
2019-03-15T06:02:43.572Z,993.39
2019-03-15T06:03:48.852Z,993.37
2019-03-15T06:04:44.557Z,993.45
2019-03-15T06:05:43.552Z,993.39
2019-03-15T06:06:43.529Z,993.39
2019-03-15T06:07:43.517Z,993.39
2019-03-15T06:08:43.509Z,993.36
2019-03-15T06:09:43.512Z,993.38
2019-03-15T06:10:43.496Z,993.32
2019-03-15T06:11:43.472Z,993.28
2019-03-15T06:12:43.468Z,993.23
2019-03-15T06:13:43.450Z,993.24
2019-03-15T06:14:46.680Z,993.23
2019-03-15T06:15:43.447Z,993.30
2019-03-15T06:16:43.428Z,993.34
2019-03-15T06:17:43.405Z,993.33
2019-03-15T06:18:43.393Z,993.29
2019-03-15T06:19:43.384Z,993.35
2019-03-15T06:20:43.388Z,993.35
2019-03-15T06:21:43.361Z,993.31
2019-03-15T06:22:43.376Z,993.34
2019-03-15T06:23:43.350Z,993.32
2019-03-15T06:24:43.332Z,993.32
2019-03-15T06:25:43.330Z,993.27
2019-03-15T06:26:43.307Z,993.25
2019-03-15T06:27:43.304Z,993.25
2019-03-15T06:28:43.289Z,993.27
2019-03-15T06:29:43.279Z,993.26
2019-03-15T06:30:43.258Z,993.23
2019-03-15T06:31:43.251Z,993.28
2019-03-15T06:32:43.280Z,993.27
2019-03-15T06:33:43.232Z,993.34
2019-03-15T06:34:43.219Z,993.31
2019-03-15T06:35:43.216Z,993.23
2019-03-15T06:36:43.193Z,993.23
2019-03-15T06:37:43.180Z,993.27
2019-03-15T06:38:43.294Z,993.32
2019-03-15T06:39:43.167Z,993.33
2019-03-15T06:40:43.149Z,993.35
2019-03-15T06:41:43.146Z,993.40
2019-03-15T06:42:43.128Z,993.42
2019-03-15T06:43:43.122Z,993.40
2019-03-15T06:44:43.117Z,993.37
2019-03-15T06:45:43.095Z,993.32
2019-03-15T06:46:43.087Z,993.31
2019-03-15T06:47:43.074Z,993.30
2019-03-15T06:48:45.044Z,993.29
2019-03-15T06:49:43.082Z,993.21
2019-03-15T06:50:43.037Z,993.20
2019-03-15T06:51:43.045Z,993.22
2019-03-15T06:52:43.018Z,993.25
2019-03-15T06:53:43.017Z,993.23
2019-03-15T06:54:42.991Z,993.27
2019-03-15T06:55:42.995Z,993.27
2019-03-15T06:56:42.969Z,993.27
2019-03-15T06:57:42.958Z,993.29
2019-03-15T06:58:42.955Z,993.24
2019-03-15T06:59:42.941Z,993.27
2019-03-15T07:00:42.938Z,993.27
2019-03-15T07:01:42.913Z,993.28
2019-03-15T07:02:42.909Z,993.20
2019-03-15T07:03:42.890Z,993.19
2019-03-15T07:04:42.880Z,993.16
2019-03-15T07:05:42.909Z,993.17
2019-03-15T07:06:42.982Z,993.18
2019-03-15T07:07:42.845Z,993.16
2019-03-15T07:08:42.833Z,993.22
2019-03-15T07:09:42.824Z,993.15
2019-03-15T07:10:44.106Z,993.06
2019-03-15T07:11:42.817Z,993.10
2019-03-15T07:12:42.793Z,993.05
2019-03-15T07:13:42.778Z,993.04
2019-03-15T07:14:42.787Z,993.04
2019-03-15T07:15:44.346Z,993.04
2019-03-15T07:16:42.756Z,993.11
2019-03-15T07:17:42.736Z,993.11
2019-03-15T07:18:42.729Z,993.14
2019-03-15T07:19:42.710Z,993.15
2019-03-15T07:20:42.698Z,993.16
2019-03-15T07:21:42.713Z,993.03
2019-03-15T07:22:42.678Z,992.99
2019-03-15T07:23:42.664Z,993.03
2019-03-15T07:24:43.906Z,993.07
2019-03-15T07:25:42.653Z,993.11
2019-03-15T07:26:43.874Z,993.07
2019-03-15T07:27:43.188Z,993.04
2019-03-15T07:28:42.613Z,993.04
2019-03-15T07:29:42.601Z,992.98
2019-03-15T07:30:42.586Z,992.90
2019-03-15T07:31:42.588Z,992.94
2019-03-15T07:32:42.606Z,993.01
2019-03-15T07:33:42.553Z,993.03
2019-03-15T07:34:42.548Z,992.97
2019-03-15T07:35:42.530Z,992.99
2019-03-15T07:36:42.526Z,993.01
2019-03-15T07:37:45.293Z,993.02
2019-03-15T07:38:42.508Z,992.99
2019-03-15T07:39:42.485Z,992.97
2019-03-15T07:40:42.473Z,992.98
2019-03-15T07:41:42.462Z,992.93
2019-03-15T07:42:42.460Z,992.92
2019-03-15T07:43:42.453Z,992.93
2019-03-15T07:44:42.433Z,992.96
2019-03-15T07:45:42.417Z,992.96
2019-03-15T07:46:42.410Z,993.00
2019-03-15T07:47:42.404Z,993.01
2019-03-15T07:48:42.430Z,992.99
2019-03-15T07:49:42.374Z,992.93
2019-03-15T07:50:42.361Z,992.96
2019-03-15T07:51:42.355Z,993.03
2019-03-15T07:52:42.341Z,992.99
2019-03-15T07:53:42.328Z,993.07
2019-03-15T07:54:42.333Z,992.99
2019-03-15T07:55:42.311Z,993.04
2019-03-15T07:56:42.294Z,993.03
2019-03-15T07:57:42.283Z,993.06
2019-03-15T07:58:42.271Z,993.06
2019-03-15T07:59:42.294Z,993.04
2019-03-15T08:00:42.255Z,992.95
2019-03-15T08:01:42.240Z,993.00
2019-03-15T08:02:42.229Z,992.96
2019-03-15T08:03:42.215Z,992.97
2019-03-15T08:04:42.205Z,992.93
2019-03-15T08:05:42.210Z,992.90
2019-03-15T08:06:42.194Z,992.88
2019-03-15T08:07:45.383Z,992.85
2019-03-15T08:08:42.304Z,992.85
2019-03-15T08:09:42.147Z,992.86
2019-03-15T08:10:42.169Z,992.88
2019-03-15T08:11:42.126Z,992.88
2019-03-15T08:12:42.118Z,992.87
2019-03-15T08:13:42.112Z,992.83
2019-03-15T08:14:42.100Z,992.88
2019-03-15T08:15:42.080Z,992.88
2019-03-15T08:16:42.084Z,992.90
2019-03-15T08:17:42.066Z,992.90
2019-03-15T08:18:42.048Z,992.95
2019-03-15T08:19:42.044Z,992.94
2019-03-15T08:20:42.026Z,992.89
2019-03-15T08:21:42.038Z,992.86
2019-03-15T08:22:42.002Z,992.77
2019-03-15T08:23:41.990Z,992.79
2019-03-15T08:24:51.525Z,992.80
2019-03-15T08:25:42.972Z,992.83
2019-03-15T08:26:41.965Z,992.83
2019-03-15T08:27:42.059Z,992.82
2019-03-15T08:28:41.940Z,992.78
2019-03-15T08:29:41.927Z,992.78
2019-03-15T08:30:41.912Z,992.76
2019-03-15T08:31:41.904Z,992.69
2019-03-15T08:32:43.689Z,992.73
2019-03-15T08:33:41.883Z,992.78
2019-03-15T08:34:41.873Z,992.81
2019-03-15T08:35:41.858Z,992.76
2019-03-15T08:36:41.847Z,992.77
2019-03-15T08:37:41.841Z,992.78
2019-03-15T08:38:47.375Z,992.69
2019-03-15T08:39:42.821Z,992.70
2019-03-15T08:40:41.802Z,992.71
2019-03-15T08:41:41.792Z,992.68
2019-03-15T08:42:41.785Z,992.75
2019-03-15T08:43:41.778Z,992.71
2019-03-15T08:44:41.759Z,992.74
2019-03-15T08:45:41.748Z,992.81
2019-03-15T08:46:41.735Z,992.76
2019-03-15T08:47:41.721Z,992.78
2019-03-15T08:48:41.728Z,992.83
2019-03-15T08:49:41.703Z,992.85
2019-03-15T08:50:41.686Z,992.79
2019-03-15T08:51:41.680Z,992.75
2019-03-15T08:52:42.241Z,992.77
2019-03-15T08:53:41.653Z,992.78
2019-03-15T08:54:41.687Z,992.72
2019-03-15T08:55:41.632Z,992.70
2019-03-15T08:56:41.618Z,992.72
2019-03-15T08:57:41.609Z,992.71
2019-03-15T08:58:41.598Z,992.66
2019-03-15T08:59:53.812Z,992.65
2019-03-15T09:00:42.585Z,992.66
2019-03-15T09:01:41.563Z,992.58
2019-03-15T09:02:41.556Z,992.61
2019-03-15T09:03:41.539Z,992.59
2019-03-15T09:04:41.534Z,992.60
2019-03-15T09:05:41.530Z,992.53
2019-03-15T09:06:41.506Z,992.46
2019-03-15T09:07:41.494Z,992.58
2019-03-15T09:08:41.483Z,992.63
2019-03-15T09:09:41.472Z,992.60
2019-03-15T09:10:41.484Z,992.70
2019-03-15T09:11:41.453Z,992.65
2019-03-15T09:12:41.440Z,992.73
2019-03-15T09:13:41.426Z,992.78
2019-03-15T09:14:41.422Z,992.78
2019-03-15T09:15:41.430Z,992.78
2019-03-15T09:16:41.393Z,992.81
2019-03-15T09:17:41.392Z,992.75
2019-03-15T09:18:41.411Z,992.80
2019-03-15T09:19:41.362Z,992.73
2019-03-15T09:20:41.348Z,992.69
2019-03-15T09:21:41.413Z,992.71
2019-03-15T09:22:41.325Z,992.65
2019-03-15T09:23:41.328Z,992.69
2019-03-15T09:24:41.314Z,992.70
2019-03-15T09:25:41.296Z,992.64
2019-03-15T09:26:41.294Z,992.63
2019-03-15T09:27:41.273Z,992.62
2019-03-15T09:28:41.256Z,992.67
2019-03-15T09:29:41.245Z,992.58
2019-03-15T09:30:41.246Z,992.59
2019-03-15T09:31:47.541Z,992.60
2019-03-15T09:32:42.211Z,992.61
2019-03-15T09:33:41.200Z,992.57
2019-03-15T09:34:41.190Z,992.52
2019-03-15T09:35:41.193Z,992.46
2019-03-15T09:36:49.835Z,992.42
2019-03-15T09:37:42.153Z,992.46
2019-03-15T09:38:41.151Z,992.48
2019-03-15T09:39:41.133Z,992.52
2019-03-15T09:40:41.124Z,992.50
2019-03-15T09:41:41.128Z,992.51
2019-03-15T09:42:41.106Z,992.48
2019-03-15T09:43:41.089Z,992.43
2019-03-15T09:44:41.078Z,992.44
2019-03-15T09:45:41.066Z,992.35
2019-03-15T09:46:41.086Z,992.46
2019-03-15T09:47:41.042Z,992.37
2019-03-15T09:48:43.660Z,992.44
2019-03-15T09:49:41.026Z,992.35
2019-03-15T09:50:51.296Z,992.36
2019-03-15T09:51:42.026Z,992.29
2019-03-15T09:52:40.987Z,992.31
2019-03-15T09:53:40.975Z,992.29
2019-03-15T09:54:40.963Z,992.29
2019-03-15T09:55:40.957Z,992.22
2019-03-15T09:56:40.943Z,992.25
2019-03-15T09:57:40.965Z,992.22
2019-03-15T09:58:40.917Z,992.31
2019-03-15T09:59:40.907Z,992.31
2019-03-15T10:00:40.893Z,992.31
2019-03-15T10:01:40.897Z,992.29
2019-03-15T10:02:40.875Z,992.25
2019-03-15T10:03:40.909Z,992.28
2019-03-15T10:04:40.859Z,992.28
2019-03-15T10:05:40.846Z,992.19
2019-03-15T10:06:40.835Z,992.15
2019-03-15T10:07:43.270Z,992.17
2019-03-15T10:08:40.802Z,992.15
2019-03-15T10:09:46.074Z,992.15
2019-03-15T10:10:41.779Z,992.10
2019-03-15T10:11:40.780Z,992.05
2019-03-15T10:12:40.760Z,992.01
2019-03-15T10:13:40.747Z,991.99
2019-03-15T10:14:40.766Z,991.92
2019-03-15T10:15:40.765Z,991.86
2019-03-15T10:16:40.714Z,991.83
2019-03-15T10:17:40.706Z,991.80
2019-03-15T10:18:40.694Z,991.76
2019-03-15T10:19:40.679Z,991.85
2019-03-15T10:20:40.684Z,991.77
2019-03-15T10:21:40.656Z,991.74
2019-03-15T10:22:40.647Z,991.66
2019-03-15T10:23:40.665Z,991.70
2019-03-15T10:24:40.627Z,991.68
2019-03-15T10:25:46.791Z,991.67
2019-03-15T10:26:41.616Z,991.70
2019-03-15T10:27:40.593Z,991.73
2019-03-15T10:28:40.581Z,991.70
2019-03-15T10:29:40.576Z,991.64
2019-03-15T10:30:40.572Z,991.69
2019-03-15T10:31:40.546Z,991.70
2019-03-15T10:32:40.543Z,991.71
2019-03-15T10:33:49.852Z,991.64
2019-03-15T10:34:41.526Z,991.61
2019-03-15T10:35:40.507Z,991.57
2019-03-15T10:36:40.490Z,991.55
2019-03-15T10:37:40.479Z,991.56
2019-03-15T10:38:40.468Z,991.54
2019-03-15T10:39:40.471Z,991.52
2019-03-15T10:40:40.447Z,991.53
2019-03-15T10:41:40.449Z,991.45
2019-03-15T10:42:40.424Z,991.41
2019-03-15T10:43:40.412Z,991.42
2019-03-15T10:44:40.403Z,991.30
2019-03-15T10:45:40.391Z,991.39
2019-03-15T10:46:40.561Z,991.35
2019-03-15T10:47:42.450Z,991.30
2019-03-15T10:48:40.355Z,991.35
2019-03-15T10:49:40.349Z,991.39
2019-03-15T10:50:40.333Z,991.28
2019-03-15T10:51:40.335Z,991.25
2019-03-15T10:52:40.311Z,991.24
2019-03-15T10:53:40.305Z,991.27
2019-03-15T10:54:40.292Z,991.16
2019-03-15T10:55:40.283Z,991.11
2019-03-15T10:56:40.290Z,991.16
2019-03-15T10:57:40.254Z,991.09
2019-03-15T10:58:40.254Z,991.02
2019-03-15T10:59:40.234Z,990.97
2019-03-15T11:00:40.220Z,990.96
2019-03-15T11:01:40.226Z,990.94
2019-03-15T11:02:40.196Z,990.88
2019-03-15T11:03:40.185Z,990.85
2019-03-15T11:04:40.173Z,990.83
2019-03-15T11:05:40.166Z,990.83
2019-03-15T11:06:40.185Z,990.85
2019-03-15T11:07:40.148Z,990.78
2019-03-15T11:08:40.169Z,990.74
2019-03-15T11:09:40.117Z,990.76
2019-03-15T11:10:40.107Z,990.82
2019-03-15T11:11:40.100Z,990.78
2019-03-15T11:12:40.088Z,990.84
2019-03-15T11:13:40.081Z,990.81
2019-03-15T11:14:40.073Z,990.82
2019-03-15T11:15:40.052Z,990.84
2019-03-15T11:16:40.039Z,990.81
2019-03-15T11:17:40.025Z,990.75
2019-03-15T11:18:40.016Z,990.71
2019-03-15T11:19:40.021Z,990.81
2019-03-15T11:20:39.998Z,990.80
2019-03-15T11:21:39.981Z,990.71
2019-03-15T11:22:39.970Z,990.61
2019-03-15T11:23:39.956Z,990.57
2019-03-15T11:24:39.959Z,990.54
2019-03-15T11:25:39.935Z,990.55
2019-03-15T11:26:39.935Z,990.58
2019-03-15T11:27:39.918Z,990.55
2019-03-15T11:28:39.901Z,990.48
2019-03-15T11:29:39.922Z,990.41
2019-03-15T11:30:39.886Z,990.46
2019-03-15T11:31:39.866Z,990.37
2019-03-15T11:32:39.856Z,990.37
2019-03-15T11:33:39.847Z,990.28
2019-03-15T11:34:39.840Z,990.25
2019-03-15T11:35:39.835Z,990.18
2019-03-15T11:36:39.850Z,990.19
2019-03-15T11:37:39.801Z,990.23
2019-03-15T11:38:39.793Z,990.18
2019-03-15T11:39:39.777Z,990.14
2019-03-15T11:40:39.771Z,990.17
2019-03-15T11:41:39.760Z,990.09
2019-03-15T11:42:39.756Z,990.09
2019-03-15T11:43:39.732Z,990.03
2019-03-15T11:44:39.721Z,990.00
2019-03-15T11:45:39.745Z,990.00
2019-03-15T11:46:39.700Z,989.94
2019-03-15T11:47:50.732Z,990.03
2019-03-15T11:48:40.673Z,989.86
2019-03-15T11:49:39.662Z,990.00
2019-03-15T11:50:39.652Z,989.91
2019-03-15T11:51:42.441Z,989.83
2019-03-15T11:52:39.647Z,989.79
2019-03-15T11:53:39.622Z,989.76
2019-03-15T11:54:39.605Z,989.77
2019-03-15T11:55:39.595Z,989.71
2019-03-15T11:56:39.585Z,989.65
2019-03-15T11:57:39.606Z,989.63
2019-03-15T11:58:39.563Z,989.62
2019-03-15T11:59:39.551Z,989.58
2019-03-15T12:00:39.543Z,989.62
2019-03-15T12:01:39.528Z,989.63
2019-03-15T12:02:39.518Z,989.49
2019-03-15T12:03:52.102Z,989.47
2019-03-15T12:04:40.489Z,989.44
2019-03-15T12:05:39.480Z,989.38
2019-03-15T12:06:39.489Z,989.42
2019-03-15T12:07:39.456Z,989.50
2019-03-15T12:08:39.460Z,989.46
2019-03-15T12:09:41.000Z,989.44
2019-03-15T12:10:39.432Z,989.51
2019-03-15T12:11:39.412Z,989.32
2019-03-15T12:12:39.406Z,989.36
2019-03-15T12:13:39.419Z,989.41
2019-03-15T12:14:41.085Z,989.33
2019-03-15T12:15:39.372Z,989.20
2019-03-15T12:16:39.355Z,989.26
2019-03-15T12:17:39.344Z,989.19
2019-03-15T12:18:39.346Z,989.18
2019-03-15T12:19:39.367Z,989.07
2019-03-15T12:20:39.318Z,989.12
2019-03-15T12:21:39.299Z,989.18
2019-03-15T12:22:39.287Z,988.98
2019-03-15T12:23:39.274Z,988.98
2019-03-15T12:24:39.273Z,988.99
2019-03-15T12:25:39.267Z,988.97
2019-03-15T12:26:40.605Z,988.96
2019-03-15T12:27:39.228Z,988.94
2019-03-15T12:28:39.219Z,988.90